sensor_id;sensor_type;location;lat;lon;timestamp;P1;durP1;ratioP1;P2;durP2;ratioP2
9280;SDS011;4679;47.966;7.958;2023-03-20T07:00:57;1.07;;;0.97;;
9280;SDS011;4679;47.966;7.958;2023-03-20T07:02:58;1.60;;;1.50;;
9280;SDS011;4679;47.966;7.958;2023-03-20T07:05:00;1.70;;;1.60;;
9280;SDS011;4679;47.966;7.958;2023-03-20T07:07:02;1.50;;;1.30;;
9280;SDS011;4679;47.966;7.958;2023-03-20T07:09:04;1.50;;;1.40;;
9280;SDS011;4679;47.966;7.958;2023-03-20T07:11:06;2.00;;;1.80;;
9280;SDS011;4679;47.966;7.958;2023-03-20T07:13:09;2.20;;;2.10;;
9280;SDS011;4679;47.966;7.958;2023-03-20T07:15:11;3.40;;;2.70;;
9280;SDS011;4679;47.966;7.958;2023-03-20T07:17:14;2.17;;;1.93;;
9280;SDS011;4679;47.966;7.958;2023-03-20T07:19:16;4.90;;;2.57;;
9280;SDS011;4679;47.966;7.958;2023-03-20T07:21:18;2.33;;;2.13;;
9280;SDS011;4679;47.966;7.958;2023-03-20T07:23:22;2.47;;;2.27;;
9280;SDS011;4679;47.966;7.958;2023-03-20T07:25:23;3.93;;;1.93;;
9280;SDS011;4679;47.966;7.958;2023-03-20T07:27:25;3.90;;;2.47;;
9280;SDS011;4679;47.966;7.958;2023-03-20T07:29:27;1.90;;;1.57;;
9280;SDS011;4679;47.966;7.958;2023-03-20T07:31:28;1.50;;;1.17;;
9280;SDS011;4679;47.966;7.958;2023-03-20T07:33:32;1.67;;;1.30;;
9280;SDS011;4679;47.966;7.958;2023-03-20T07:35:34;1.60;;;1.20;;
9280;SDS011;4679;47.966;7.958;2023-03-20T07:37:36;1.33;;;1.13;;
9280;SDS011;4679;47.966;7.958;2023-03-20T07:39:38;1.97;;;1.20;;
9280;SDS011;4679;47.966;7.958;2023-03-20T07:41:39;1.17;;;1.13;;
9280;SDS011;4679;47.966;7.958;2023-03-20T07:43:41;3.73;;;1.20;;
9280;SDS011;4679;47.966;7.958;2023-03-20T07:45:43;1.10;;;1.10;;
9280;SDS011;4679;47.966;7.958;2023-03-20T07:47:44;1.83;;;1.10;;
9280;SDS011;4679;47.966;7.958;2023-03-20T07:49:49;1.00;;;1.00;;
9280;SDS011;4679;47.966;7.958;2023-03-20T07:51:50;1.23;;;1.13;;
9280;SDS011;4679;47.966;7.958;2023-03-20T07:53:53;1.20;;;1.10;;
9280;SDS011;4679;47.966;7.958;2023-03-20T07:55:55;1.53;;;1.20;;
9280;SDS011;4679;47.966;7.958;2023-03-20T07:57:56;1.10;;;1.10;;
9280;SDS011;4679;47.966;7.958;2023-03-20T07:59:58;1.27;;;1.17;;
9280;SDS011;4679;47.966;7.958;2023-03-20T08:02:00;4.83;;;0.90;;
9280;SDS011;4679;47.966;7.958;2023-03-20T08:04:01;1.17;;;0.90;;
9280;SDS011;4679;47.966;7.958;2023-03-20T08:06:05;1.20;;;1.00;;
9280;SDS011;4679;47.966;7.958;2023-03-20T08:08:08;0.80;;;0.80;;
9280;SDS011;4679;47.966;7.958;2023-03-20T08:10:10;1.20;;;1.10;;
9280;SDS011;4679;47.966;7.958;2023-03-20T08:12:12;2.17;;;1.17;;
9280;SDS011;4679;47.966;7.958;2023-03-20T08:14:13;1.20;;;1.03;;
9280;SDS011;4679;47.966;7.958;2023-03-20T08:16:15;1.23;;;0.80;;
9280;SDS011;4679;47.966;7.958;2023-03-20T08:18:17;1.07;;;0.83;;
9280;SDS011;4679;47.966;7.958;2023-03-20T08:20:21;1.00;;;0.90;;
9280;SDS011;4679;47.966;7.958;2023-03-20T08:22:24;0.80;;;0.80;;
9280;SDS011;4679;47.966;7.958;2023-03-20T08:24:26;0.80;;;0.80;;
9280;SDS011;4679;47.966;7.958;2023-03-20T08:26:27;1.60;;;1.00;;
9280;SDS011;4679;47.966;7.958;2023-03-20T08:28:29;0.80;;;0.70;;
9280;SDS011;4679;47.966;7.958;2023-03-20T08:30:31;1.00;;;1.00;;
9280;SDS011;4679;47.966;7.958;2023-03-20T08:32:32;1.13;;;0.90;;
9280;SDS011;4679;47.966;7.958;2023-03-20T08:34:34;1.20;;;1.10;;
9280;SDS011;4679;47.966;7.958;2023-03-20T08:36:36;1.57;;;1.10;;
9280;SDS011;4679;47.966;7.958;2023-03-20T08:38:40;1.40;;;1.30;;
9280;SDS011;4679;47.966;7.958;2023-03-20T08:40:42;1.53;;;1.00;;
9280;SDS011;4679;47.966;7.958;2023-03-20T08:42:44;1.20;;;1.10;;
9280;SDS011;4679;47.966;7.958;2023-03-20T08:44:46;6.20;;;1.30;;
9280;SDS011;4679;47.966;7.958;2023-03-20T08:46:48;6.30;;;1.50;;
9280;SDS011;4679;47.966;7.958;2023-03-20T08:48:50;4.70;;;1.60;;
9280;SDS011;4679;47.966;7.958;2023-03-20T08:50:51;3.10;;;1.20;;
9280;SDS011;4679;47.966;7.958;2023-03-20T08:52:53;1.20;;;1.10;;
9280;SDS011;4679;47.966;7.958;2023-03-20T08:54:56;1.10;;;1.00;;
9280;SDS011;4679;47.966;7.958;2023-03-20T08:56:58;2.77;;;0.97;;
9280;SDS011;4679;47.966;7.958;2023-03-20T08:58:59;1.10;;;1.00;;
9280;SDS011;4679;47.966;7.958;2023-03-20T09:01:04;0.90;;;0.90;;
9280;SDS011;4679;47.966;7.958;2023-03-20T09:03:10;0.90;;;0.90;;
9280;SDS011;4679;47.966;7.958;2023-03-20T09:05:13;1.10;;;1.00;;
9280;SDS011;4679;47.966;7.958;2023-03-20T09:07:15;1.83;;;0.93;;
9280;SDS011;4679;47.966;7.958;2023-03-20T09:09:17;2.53;;;1.10;;
9280;SDS011;4679;47.966;7.958;2023-03-20T09:11:22;0.80;;;0.80;;
9280;SDS011;4679;47.966;7.958;2023-03-20T09:13:23;0.90;;;0.90;;
9280;SDS011;4679;47.966;7.958;2023-03-20T09:15:25;1.93;;;1.07;;
9280;SDS011;4679;47.966;7.958;2023-03-20T09:17:27;0.77;;;0.77;;
9280;SDS011;4679;47.966;7.958;2023-03-20T09:19:30;1.53;;;0.77;;
9280;SDS011;4679;47.966;7.958;2023-03-20T09:21:32;1.97;;;0.80;;
9280;SDS011;4679;47.966;7.958;2023-03-20T09:23:34;2.23;;;0.90;;
9280;SDS011;4679;47.966;7.958;2023-03-20T09:25:35;1.90;;;0.70;;
9280;SDS011;4679;47.966;7.958;2023-03-20T09:27:38;0.97;;;0.70;;
9280;SDS011;4679;47.966;7.958;2023-03-20T09:29:40;0.77;;;0.77;;
9280;SDS011;4679;47.966;7.958;2023-03-20T09:31:42;0.73;;;0.73;;
9280;SDS011;4679;47.966;7.958;2023-03-20T09:33:44;1.07;;;0.80;;
9280;SDS011;4679;47.966;7.958;2023-03-20T09:35:46;2.20;;;1.00;;
9280;SDS011;4679;47.966;7.958;2023-03-20T09:37:48;2.47;;;0.90;;
9280;SDS011;4679;47.966;7.958;2023-03-20T09:39:49;1.07;;;0.90;;
9280;SDS011;4679;47.966;7.958;2023-03-20T09:41:51;0.90;;;0.90;;
9280;SDS011;4679;47.966;7.958;2023-03-20T09:43:57;1.23;;;0.70;;
9280;SDS011;4679;47.966;7.958;2023-03-20T09:46:08;0.70;;;0.70;;
9280;SDS011;4679;47.966;7.958;2023-03-20T09:48:22;2.60;;;0.90;;
9280;SDS011;4679;47.966;7.958;2023-03-20T09:50:33;0.70;;;0.70;;
9280;SDS011;4679;47.966;7.958;2023-03-20T09:52:39;0.73;;;0.57;;
9280;SDS011;4679;47.966;7.958;2023-03-20T09:54:46;1.00;;;0.70;;
9280;SDS011;4679;47.966;7.958;2023-03-20T09:56:51;0.70;;;0.70;;
9280;SDS011;4679;47.966;7.958;2023-03-20T09:58:57;0.73;;;0.73;;
9280;SDS011;4679;47.966;7.958;2023-03-20T10:01:03;0.70;;;0.60;;
9280;SDS011;4679;47.966;7.958;2023-03-20T10:03:10;0.73;;;0.73;;
9280;SDS011;4679;47.966;7.958;2023-03-20T10:05:19;0.50;;;0.50;;
9280;SDS011;4679;47.966;7.958;2023-03-20T10:07:24;0.70;;;0.60;;
9280;SDS011;4679;47.966;7.958;2023-03-20T10:09:27;0.60;;;0.60;;
9280;SDS011;4679;47.966;7.958;2023-03-20T10:11:34;4.60;;;1.30;;
9280;SDS011;4679;47.966;7.958;2023-03-20T10:14:03;1.47;;;1.27;;
9280;SDS011;4679;47.966;7.958;2023-03-20T10:16:18;13.70;;;1.73;;
9280;SDS011;4679;47.966;7.958;2023-03-20T10:18:33;3.33;;;0.90;;
9280;SDS011;4679;47.966;7.958;2023-03-20T10:20:38;0.80;;;0.80;;
9280;SDS011;4679;47.966;7.958;2023-03-20T10:22:44;2.87;;;0.50;;
9280;SDS011;4679;47.966;7.958;2023-03-20T10:24:49;0.40;;;0.33;;
9280;SDS011;4679;47.966;7.958;2023-03-20T10:26:57;0.90;;;0.30;;
9280;SDS011;4679;47.966;7.958;2023-03-20T10:29:06;0.37;;;0.30;;
9280;SDS011;4679;47.966;7.958;2023-03-20T10:31:20;0.43;;;0.27;;
9280;SDS011;4679;47.966;7.958;2023-03-20T10:33:34;0.40;;;0.40;;
9280;SDS011;4679;47.966;7.958;2023-03-20T10:35:47;1.33;;;0.50;;
9280;SDS011;4679;47.966;7.958;2023-03-20T10:38:00;0.80;;;0.80;;
9280;SDS011;4679;47.966;7.958;2023-03-20T10:40:18;1.13;;;0.70;;
9280;SDS011;4679;47.966;7.958;2023-03-20T10:42:26;0.87;;;0.80;;
9280;SDS011;4679;47.966;7.958;2023-03-20T10:44:32;0.77;;;0.70;;
9280;SDS011;4679;47.966;7.958;2023-03-20T10:46:39;0.60;;;0.60;;
9280;SDS011;4679;47.966;7.958;2023-03-20T10:48:43;0.60;;;0.60;;
9280;SDS011;4679;47.966;7.958;2023-03-20T10:50:49;0.50;;;0.50;;
9280;SDS011;4679;47.966;7.958;2023-03-20T10:52:54;0.83;;;0.60;;
9280;SDS011;4679;47.966;7.958;2023-03-20T10:54:57;1.30;;;0.80;;
9280;SDS011;4679;47.966;7.958;2023-03-20T10:57:02;0.83;;;0.70;;
9280;SDS011;4679;47.966;7.958;2023-03-20T10:59:06;0.83;;;0.70;;
9280;SDS011;4679;47.966;7.958;2023-03-20T11:01:13;0.70;;;0.70;;
9280;SDS011;4679;47.966;7.958;2023-03-20T11:03:17;1.63;;;0.70;;
9280;SDS011;4679;47.966;7.958;2023-03-20T11:05:23;0.70;;;0.70;;
9280;SDS011;4679;47.966;7.958;2023-03-20T11:07:31;0.83;;;0.70;;
9280;SDS011;4679;47.966;7.958;2023-03-20T11:09:34;1.17;;;0.70;;
9280;SDS011;4679;47.966;7.958;2023-03-20T11:11:36;0.80;;;0.60;;
9280;SDS011;4679;47.966;7.958;2023-03-20T11:13:43;0.80;;;0.50;;
9280;SDS011;4679;47.966;7.958;2023-03-20T11:15:45;0.70;;;0.40;;
9280;SDS011;4679;47.966;7.958;2023-03-20T11:17:52;0.20;;;0.20;;
9280;SDS011;4679;47.966;7.958;2023-03-20T11:19:54;0.40;;;0.40;;
9280;SDS011;4679;47.966;7.958;2023-03-20T11:22:06;0.40;;;0.30;;
9280;SDS011;4679;47.966;7.958;2023-03-20T11:24:17;0.30;;;0.30;;
9280;SDS011;4679;47.966;7.958;2023-03-20T11:26:31;0.50;;;0.30;;
9280;SDS011;4679;47.966;7.958;2023-03-20T11:28:37;0.77;;;0.33;;
9280;SDS011;4679;47.966;7.958;2023-03-20T11:30:40;0.63;;;0.40;;
9280;SDS011;4679;47.966;7.958;2023-03-20T11:32:44;0.30;;;0.30;;
9280;SDS011;4679;47.966;7.958;2023-03-20T11:34:49;0.20;;;0.20;;
9280;SDS011;4679;47.966;7.958;2023-03-20T11:36:55;0.40;;;0.40;;
9280;SDS011;4679;47.966;7.958;2023-03-20T11:39:00;0.97;;;0.60;;
9280;SDS011;4679;47.966;7.958;2023-03-20T11:41:10;0.30;;;0.30;;
9280;SDS011;4679;47.966;7.958;2023-03-20T11:43:18;0.93;;;0.30;;
9280;SDS011;4679;47.966;7.958;2023-03-20T11:45:22;0.20;;;0.10;;
9280;SDS011;4679;47.966;7.958;2023-03-20T11:47:26;0.20;;;0.20;;
9280;SDS011;4679;47.966;7.958;2023-03-20T11:49:29;0.10;;;0.10;;
9280;SDS011;4679;47.966;7.958;2023-03-20T11:51:34;1.17;;;0.30;;
9280;SDS011;4679;47.966;7.958;2023-03-20T11:53:37;0.53;;;0.33;;
9280;SDS011;4679;47.966;7.958;2023-03-20T11:55:40;0.53;;;0.53;;
9280;SDS011;4679;47.966;7.958;2023-03-20T11:57:47;0.50;;;0.43;;
9280;SDS011;4679;47.966;7.958;2023-03-20T11:59:49;0.50;;;0.50;;
9280;SDS011;4679;47.966;7.958;2023-03-20T12:01:52;0.47;;;0.40;;
9280;SDS011;4679;47.966;7.958;2023-03-20T12:03:59;0.40;;;0.40;;
9280;SDS011;4679;47.966;7.958;2023-03-20T12:06:04;0.40;;;0.40;;
9280;SDS011;4679;47.966;7.958;2023-03-20T12:08:11;2.33;;;0.60;;
9280;SDS011;4679;47.966;7.958;2023-03-20T12:10:16;0.60;;;0.60;;
9280;SDS011;4679;47.966;7.958;2023-03-20T12:12:22;0.90;;;0.90;;
9280;SDS011;4679;47.966;7.958;2023-03-20T12:14:33;1.60;;;0.90;;
9280;SDS011;4679;47.966;7.958;2023-03-20T12:16:40;0.80;;;0.70;;
9280;SDS011;4679;47.966;7.958;2023-03-20T12:18:43;1.33;;;0.90;;
9280;SDS011;4679;47.966;7.958;2023-03-20T12:20:49;0.50;;;0.50;;
9280;SDS011;4679;47.966;7.958;2023-03-20T12:23:01;0.70;;;0.70;;
9280;SDS011;4679;47.966;7.958;2023-03-20T12:25:15;0.70;;;0.43;;
9280;SDS011;4679;47.966;7.958;2023-03-20T12:27:22;0.43;;;0.43;;
9280;SDS011;4679;47.966;7.958;2023-03-20T12:29:29;0.90;;;0.80;;
9280;SDS011;4679;47.966;7.958;2023-03-20T12:31:38;0.40;;;0.40;;
9280;SDS011;4679;47.966;7.958;2023-03-20T12:33:46;0.87;;;0.40;;
9280;SDS011;4679;47.966;7.958;2023-03-20T12:35:52;1.07;;;0.30;;
9280;SDS011;4679;47.966;7.958;2023-03-20T12:37:56;0.67;;;0.67;;
9280;SDS011;4679;47.966;7.958;2023-03-20T12:39:59;1.60;;;0.50;;
9280;SDS011;4679;47.966;7.958;2023-03-20T12:42:07;1.00;;;0.40;;
9280;SDS011;4679;47.966;7.958;2023-03-20T12:44:29;0.53;;;0.30;;
9280;SDS011;4679;47.966;7.958;2023-03-20T12:46:38;0.40;;;0.40;;
9280;SDS011;4679;47.966;7.958;2023-03-20T12:48:49;0.37;;;0.37;;
9280;SDS011;4679;47.966;7.958;2023-03-20T12:51:01;1.40;;;0.40;;
9280;SDS011;4679;47.966;7.958;2023-03-20T12:53:15;0.80;;;0.80;;
9280;SDS011;4679;47.966;7.958;2023-03-20T12:55:35;0.50;;;0.50;;
9280;SDS011;4679;47.966;7.958;2023-03-20T12:57:48;1.63;;;0.50;;
9280;SDS011;4679;47.966;7.958;2023-03-20T13:00:15;0.90;;;0.40;;
9280;SDS011;4679;47.966;7.958;2023-03-20T13:02:29;1.43;;;0.50;;
9280;SDS011;4679;47.966;7.958;2023-03-20T13:04:45;0.40;;;0.40;;
9280;SDS011;4679;47.966;7.958;2023-03-20T13:06:58;0.40;;;0.40;;
9280;SDS011;4679;47.966;7.958;2023-03-20T13:09:08;0.53;;;0.40;;
9280;SDS011;4679;47.966;7.958;2023-03-20T13:11:28;0.80;;;0.53;;
9280;SDS011;4679;47.966;7.958;2023-03-20T13:13:38;1.03;;;0.60;;
9280;SDS011;4679;47.966;7.958;2023-03-20T13:15:48;1.70;;;0.40;;
9280;SDS011;4679;47.966;7.958;2023-03-20T13:18:00;1.30;;;0.47;;
9280;SDS011;4679;47.966;7.958;2023-03-20T13:20:14;0.20;;;0.20;;
9280;SDS011;4679;47.966;7.958;2023-03-20T13:22:22;0.50;;;0.50;;
9280;SDS011;4679;47.966;7.958;2023-03-20T13:24:32;0.40;;;0.40;;
9280;SDS011;4679;47.966;7.958;2023-03-20T13:26:42;0.37;;;0.33;;
9280;SDS011;4679;47.966;7.958;2023-03-20T13:28:53;0.50;;;0.50;;
9280;SDS011;4679;47.966;7.958;2023-03-20T13:30:59;0.40;;;0.30;;
9280;SDS011;4679;47.966;7.958;2023-03-20T13:33:22;2.77;;;0.50;;
9280;SDS011;4679;47.966;7.958;2023-03-20T13:35:39;0.50;;;0.50;;
9280;SDS011;4679;47.966;7.958;2023-03-20T13:37:49;0.60;;;0.30;;
9280;SDS011;4679;47.966;7.958;2023-03-20T13:39:58;0.50;;;0.40;;
9280;SDS011;4679;47.966;7.958;2023-03-20T13:42:05;0.40;;;0.40;;
9280;SDS011;4679;47.966;7.958;2023-03-20T13:44:15;0.50;;;0.43;;
9280;SDS011;4679;47.966;7.958;2023-03-20T13:46:21;0.40;;;0.40;;
9280;SDS011;4679;47.966;7.958;2023-03-20T13:48:26;0.50;;;0.50;;
9280;SDS011;4679;47.966;7.958;2023-03-20T13:50:34;0.57;;;0.40;;
9280;SDS011;4679;47.966;7.958;2023-03-20T13:52:44;0.43;;;0.40;;
9280;SDS011;4679;47.966;7.958;2023-03-20T13:54:52;1.23;;;0.60;;
9280;SDS011;4679;47.966;7.958;2023-03-20T13:57:08;0.90;;;0.40;;
9280;SDS011;4679;47.966;7.958;2023-03-20T13:59:29;0.40;;;0.40;;
9280;SDS011;4679;47.966;7.958;2023-03-20T14:01:40;0.83;;;0.40;;
9280;SDS011;4679;47.966;7.958;2023-03-20T14:03:51;1.33;;;0.30;;
9280;SDS011;4679;47.966;7.958;2023-03-20T14:05:53;3.23;;;0.50;;
9280;SDS011;4679;47.966;7.958;2023-03-20T14:07:56;0.30;;;0.30;;
9280;SDS011;4679;47.966;7.958;2023-03-20T14:10:11;0.20;;;0.20;;
9280;SDS011;4679;47.966;7.958;2023-03-20T14:12:39;0.20;;;0.20;;
9280;SDS011;4679;47.966;7.958;2023-03-20T14:14:42;2.33;;;0.40;;
9280;SDS011;4679;47.966;7.958;2023-03-20T14:16:50;2.20;;;0.30;;
9280;SDS011;4679;47.966;7.958;2023-03-20T14:19:04;0.30;;;0.20;;
9280;SDS011;4679;47.966;7.958;2023-03-20T14:21:09;0.20;;;0.10;;
9280;SDS011;4679;47.966;7.958;2023-03-20T14:23:15;0.40;;;0.30;;
9280;SDS011;4679;47.966;7.958;2023-03-20T14:25:19;0.97;;;0.30;;
9280;SDS011;4679;47.966;7.958;2023-03-20T14:27:23;0.40;;;0.40;;
9280;SDS011;4679;47.966;7.958;2023-03-20T14:29:30;0.47;;;0.40;;
9280;SDS011;4679;47.966;7.958;2023-03-20T14:31:36;0.93;;;0.30;;
9280;SDS011;4679;47.966;7.958;2023-03-20T14:33:41;0.83;;;0.30;;
9280;SDS011;4679;47.966;7.958;2023-03-20T14:35:45;0.30;;;0.30;;
9280;SDS011;4679;47.966;7.958;2023-03-20T14:38:06;0.47;;;0.20;;
9280;SDS011;4679;47.966;7.958;2023-03-20T14:40:15;0.93;;;0.40;;
9280;SDS011;4679;47.966;7.958;2023-03-20T14:42:24;0.10;;;0.10;;
9280;SDS011;4679;47.966;7.958;2023-03-20T14:44:42;0.30;;;0.20;;
9280;SDS011;4679;47.966;7.958;2023-03-20T14:46:52;0.70;;;0.30;;
9280;SDS011;4679;47.966;7.958;2023-03-20T14:49:01;0.40;;;0.30;;
9280;SDS011;4679;47.966;7.958;2023-03-20T14:51:21;0.33;;;0.30;;
9280;SDS011;4679;47.966;7.958;2023-03-20T14:53:31;0.43;;;0.30;;
9280;SDS011;4679;47.966;7.958;2023-03-20T14:55:33;1.60;;;0.23;;
9280;SDS011;4679;47.966;7.958;2023-03-20T14:57:50;0.90;;;0.30;;
9280;SDS011;4679;47.966;7.958;2023-03-20T14:59:53;0.33;;;0.30;;
9280;SDS011;4679;47.966;7.958;2023-03-20T15:01:57;0.40;;;0.40;;
9280;SDS011;4679;47.966;7.958;2023-03-20T15:04:00;0.43;;;0.30;;
9280;SDS011;4679;47.966;7.958;2023-03-20T15:06:06;0.53;;;0.27;;
9280;SDS011;4679;47.966;7.958;2023-03-20T15:08:11;0.33;;;0.30;;
9280;SDS011;4679;47.966;7.958;2023-03-20T15:10:18;0.33;;;0.20;;
9280;SDS011;4679;47.966;7.958;2023-03-20T15:12:22;1.10;;;0.20;;
9280;SDS011;4679;47.966;7.958;2023-03-20T15:14:26;0.30;;;0.30;;
9280;SDS011;4679;47.966;7.958;2023-03-20T15:16:32;1.23;;;0.30;;
9280;SDS011;4679;47.966;7.958;2023-03-20T15:18:38;1.27;;;0.20;;
9280;SDS011;4679;47.966;7.958;2023-03-20T15:20:42;0.30;;;0.20;;
9280;SDS011;4679;47.966;7.958;2023-03-20T15:22:48;0.27;;;0.20;;
9280;SDS011;4679;47.966;7.958;2023-03-20T15:24:51;0.30;;;0.30;;
9280;SDS011;4679;47.966;7.958;2023-03-20T15:26:55;1.03;;;0.30;;
9280;SDS011;4679;47.966;7.958;2023-03-20T15:29:00;1.03;;;0.30;;
9280;SDS011;4679;47.966;7.958;2023-03-20T15:31:04;1.07;;;0.40;;
9280;SDS011;4679;47.966;7.958;2023-03-20T15:33:09;0.87;;;0.30;;
9280;SDS011;4679;47.966;7.958;2023-03-20T15:35:18;0.40;;;0.20;;
9280;SDS011;4679;47.966;7.958;2023-03-20T15:37:22;0.20;;;0.20;;
9280;SDS011;4679;47.966;7.958;2023-03-20T15:39:26;0.30;;;0.20;;
9280;SDS011;4679;47.966;7.958;2023-03-20T15:41:29;0.67;;;0.33;;
9280;SDS011;4679;47.966;7.958;2023-03-20T15:43:33;0.47;;;0.30;;
9280;SDS011;4679;47.966;7.958;2023-03-20T15:45:38;0.47;;;0.30;;
9280;SDS011;4679;47.966;7.958;2023-03-20T15:47:41;0.30;;;0.30;;
9280;SDS011;4679;47.966;7.958;2023-03-20T15:49:47;1.17;;;0.30;;
9280;SDS011;4679;47.966;7.958;2023-03-20T15:51:52;0.57;;;0.30;;
9280;SDS011;4679;47.966;7.958;2023-03-20T15:53:57;0.20;;;0.20;;
9280;SDS011;4679;47.966;7.958;2023-03-20T15:56:01;0.30;;;0.30;;
9280;SDS011;4679;47.966;7.958;2023-03-20T15:58:05;0.20;;;0.20;;
9280;SDS011;4679;47.966;7.958;2023-03-20T16:00:08;0.20;;;0.20;;
9280;SDS011;4679;47.966;7.958;2023-03-20T16:02:16;0.50;;;0.23;;
9280;SDS011;4679;47.966;7.958;2023-03-20T16:04:18;0.63;;;0.13;;
9280;SDS011;4679;47.966;7.958;2023-03-20T16:06:21;0.33;;;0.30;;
9280;SDS011;4679;47.966;7.958;2023-03-20T16:08:27;0.90;;;0.17;;
9280;SDS011;4679;47.966;7.958;2023-03-20T16:10:31;0.30;;;0.20;;
9280;SDS011;4679;47.966;7.958;2023-03-20T16:12:35;0.33;;;0.30;;
9280;SDS011;4679;47.966;7.958;2023-03-20T16:14:36;0.63;;;0.30;;
9280;SDS011;4679;47.966;7.958;2023-03-20T16:16:38;0.20;;;0.20;;
9280;SDS011;4679;47.966;7.958;2023-03-20T16:18:41;0.40;;;0.33;;
9280;SDS011;4679;47.966;7.958;2023-03-20T16:20:46;0.20;;;0.20;;
9280;SDS011;4679;47.966;7.958;2023-03-20T16:22:51;0.20;;;0.20;;
9280;SDS011;4679;47.966;7.958;2023-03-20T16:24:59;0.20;;;0.20;;
9280;SDS011;4679;47.966;7.958;2023-03-20T16:27:04;0.40;;;0.30;;
9280;SDS011;4679;47.966;7.958;2023-03-20T16:29:08;0.50;;;0.40;;
9280;SDS011;4679;47.966;7.958;2023-03-20T16:31:15;0.40;;;0.40;;
9280;SDS011;4679;47.966;7.958;2023-03-20T16:33:18;0.50;;;0.40;;
9280;SDS011;4679;47.966;7.958;2023-03-20T16:35:20;1.10;;;0.30;;
9280;SDS011;4679;47.966;7.958;2023-03-20T16:37:26;0.40;;;0.30;;
9280;SDS011;4679;47.966;7.958;2023-03-20T16:39:30;0.30;;;0.30;;
9280;SDS011;4679;47.966;7.958;2023-03-20T16:41:34;0.50;;;0.50;;
9280;SDS011;4679;47.966;7.958;2023-03-20T16:43:37;0.73;;;0.30;;
9280;SDS011;4679;47.966;7.958;2023-03-20T16:45:40;0.50;;;0.50;;
9280;SDS011;4679;47.966;7.958;2023-03-20T16:47:42;0.63;;;0.40;;
9280;SDS011;4679;47.966;7.958;2023-03-20T16:50:02;0.40;;;0.30;;
9280;SDS011;4679;47.966;7.958;2023-03-20T16:52:14;1.40;;;0.43;;
9280;SDS011;4679;47.966;7.958;2023-03-20T16:54:17;0.40;;;0.30;;
9280;SDS011;4679;47.966;7.958;2023-03-20T16:56:21;0.30;;;0.30;;
9280;SDS011;4679;47.966;7.958;2023-03-20T16:58:28;0.40;;;0.37;;
9280;SDS011;4679;47.966;7.958;2023-03-20T17:00:32;0.63;;;0.30;;
9280;SDS011;4679;47.966;7.958;2023-03-20T17:02:43;0.87;;;0.23;;
9280;SDS011;4679;47.966;7.958;2023-03-20T17:04:53;0.77;;;0.30;;
9280;SDS011;4679;47.966;7.958;2023-03-20T17:06:57;0.30;;;0.30;;
9280;SDS011;4679;47.966;7.958;2023-03-20T17:09:01;0.40;;;0.40;;
9280;SDS011;4679;47.966;7.958;2023-03-20T17:11:21;0.53;;;0.53;;
9280;SDS011;4679;47.966;7.958;2023-03-20T17:13:28;0.40;;;0.37;;
9280;SDS011;4679;47.966;7.958;2023-03-20T17:15:30;1.20;;;0.40;;
9280;SDS011;4679;47.966;7.958;2023-03-20T17:17:31;0.50;;;0.40;;
9280;SDS011;4679;47.966;7.958;2023-03-20T17:19:34;0.30;;;0.30;;
9280;SDS011;4679;47.966;7.958;2023-03-20T17:21:36;0.40;;;0.40;;
9280;SDS011;4679;47.966;7.958;2023-03-20T17:23:37;0.80;;;0.23;;
9280;SDS011;4679;47.966;7.958;2023-03-20T17:25:39;0.40;;;0.40;;
9280;SDS011;4679;47.966;7.958;2023-03-20T17:27:41;0.30;;;0.30;;
9280;SDS011;4679;47.966;7.958;2023-03-20T17:29:45;2.00;;;0.43;;
9280;SDS011;4679;47.966;7.958;2023-03-20T17:31:48;1.13;;;0.40;;
9280;SDS011;4679;47.966;7.958;2023-03-20T17:33:51;1.60;;;0.50;;
9280;SDS011;4679;47.966;7.958;2023-03-20T17:35:53;1.00;;;0.50;;
9280;SDS011;4679;47.966;7.958;2023-03-20T17:37:56;0.53;;;0.53;;
9280;SDS011;4679;47.966;7.958;2023-03-20T17:39:58;1.43;;;0.77;;
9280;SDS011;4679;47.966;7.958;2023-03-20T17:42:00;0.70;;;0.70;;
9280;SDS011;4679;47.966;7.958;2023-03-20T17:44:02;1.87;;;0.80;;
9280;SDS011;4679;47.966;7.958;2023-03-20T17:46:06;1.23;;;0.90;;
9280;SDS011;4679;47.966;7.958;2023-03-20T17:48:11;1.20;;;1.00;;
9280;SDS011;4679;47.966;7.958;2023-03-20T17:50:16;1.03;;;0.90;;
9280;SDS011;4679;47.966;7.958;2023-03-20T17:52:20;0.90;;;0.90;;
9280;SDS011;4679;47.966;7.958;2023-03-20T17:54:23;1.27;;;0.67;;
9280;SDS011;4679;47.966;7.958;2023-03-20T17:56:25;1.87;;;0.90;;
9280;SDS011;4679;47.966;7.958;2023-03-20T17:58:31;1.13;;;0.80;;
9280;SDS011;4679;47.966;7.958;2023-03-20T18:00:33;0.80;;;0.80;;
9280;SDS011;4679;47.966;7.958;2023-03-20T18:02:36;0.60;;;0.60;;
9280;SDS011;4679;47.966;7.958;2023-03-20T18:04:38;1.27;;;1.17;;
9280;SDS011;4679;47.966;7.958;2023-03-20T18:06:40;1.50;;;1.40;;
9280;SDS011;4679;47.966;7.958;2023-03-20T18:08:42;1.10;;;0.80;;
9280;SDS011;4679;47.966;7.958;2023-03-20T18:10:43;0.83;;;0.73;;
9280;SDS011;4679;47.966;7.958;2023-03-20T18:12:45;0.60;;;0.60;;
9280;SDS011;4679;47.966;7.958;2023-03-20T18:14:47;0.87;;;0.50;;
9280;SDS011;4679;47.966;7.958;2023-03-20T18:16:49;0.40;;;0.40;;
9280;SDS011;4679;47.966;7.958;2023-03-20T18:18:52;0.40;;;0.40;;
9280;SDS011;4679;47.966;7.958;2023-03-20T18:20:54;1.00;;;0.30;;
9280;SDS011;4679;47.966;7.958;2023-03-20T18:22:56;0.73;;;0.40;;
9280;SDS011;4679;47.966;7.958;2023-03-20T18:24:58;0.90;;;0.30;;
9280;SDS011;4679;47.966;7.958;2023-03-20T18:27:00;1.17;;;0.40;;
9280;SDS011;4679;47.966;7.958;2023-03-20T18:29:02;1.17;;;0.30;;
9280;SDS011;4679;47.966;7.958;2023-03-20T18:31:04;0.50;;;0.50;;
9280;SDS011;4679;47.966;7.958;2023-03-20T18:33:06;0.83;;;0.40;;
9280;SDS011;4679;47.966;7.958;2023-03-20T18:35:10;0.50;;;0.50;;
9280;SDS011;4679;47.966;7.958;2023-03-20T18:37:12;2.00;;;1.00;;
9280;SDS011;4679;47.966;7.958;2023-03-20T18:39:17;0.70;;;0.70;;
9280;SDS011;4679;47.966;7.958;2023-03-20T18:41:19;2.00;;;0.80;;
9280;SDS011;4679;47.966;7.958;2023-03-20T18:43:21;1.40;;;0.80;;
9280;SDS011;4679;47.966;7.958;2023-03-20T18:45:24;1.67;;;0.70;;
9280;SDS011;4679;47.966;7.958;2023-03-20T18:47:27;0.87;;;0.70;;
9280;SDS011;4679;47.966;7.958;2023-03-20T18:49:29;1.37;;;1.20;;
9280;SDS011;4679;47.966;7.958;2023-03-20T18:51:39;3.10;;;0.90;;
9280;SDS011;4679;47.966;7.958;2023-03-20T18:53:40;0.77;;;0.60;;
9280;SDS011;4679;47.966;7.958;2023-03-20T18:55:42;1.67;;;1.00;;
9280;SDS011;4679;47.966;7.958;2023-03-20T18:57:45;1.07;;;0.97;;
9280;SDS011;4679;47.966;7.958;2023-03-20T18:59:46;1.70;;;1.00;;
9280;SDS011;4679;47.966;7.958;2023-03-20T19:01:48;1.60;;;0.90;;
9280;SDS011;4679;47.966;7.958;2023-03-20T19:03:52;5.67;;;1.70;;
9280;SDS011;4679;47.966;7.958;2023-03-20T19:05:54;2.23;;;2.03;;
9280;SDS011;4679;47.966;7.958;2023-03-20T19:07:59;6.07;;;3.63;;
9280;SDS011;4679;47.966;7.958;2023-03-20T19:10:02;4.27;;;3.10;;
9280;SDS011;4679;47.966;7.958;2023-03-20T19:12:04;3.40;;;1.87;;
9280;SDS011;4679;47.966;7.958;2023-03-20T19:14:06;2.90;;;1.57;;
9280;SDS011;4679;47.966;7.958;2023-03-20T19:16:10;4.63;;;1.40;;
9280;SDS011;4679;47.966;7.958;2023-03-20T19:18:21;4.30;;;2.80;;
9280;SDS011;4679;47.966;7.958;2023-03-20T19:20:31;3.37;;;2.47;;
9280;SDS011;4679;47.966;7.958;2023-03-20T19:22:35;4.83;;;2.20;;
9280;SDS011;4679;47.966;7.958;2023-03-20T19:24:38;3.70;;;1.57;;
9280;SDS011;4679;47.966;7.958;2023-03-20T19:26:40;1.30;;;1.20;;
9280;SDS011;4679;47.966;7.958;2023-03-20T19:28:41;2.20;;;1.10;;
9280;SDS011;4679;47.966;7.958;2023-03-20T19:30:44;1.20;;;1.10;;
9280;SDS011;4679;47.966;7.958;2023-03-20T19:32:45;0.93;;;0.87;;
9280;SDS011;4679;47.966;7.958;2023-03-20T19:34:47;1.03;;;1.00;;
9280;SDS011;4679;47.966;7.958;2023-03-20T19:36:49;0.87;;;0.87;;
9280;SDS011;4679;47.966;7.958;2023-03-20T19:38:51;2.60;;;1.03;;
9280;SDS011;4679;47.966;7.958;2023-03-20T19:40:55;1.10;;;1.00;;
9280;SDS011;4679;47.966;7.958;2023-03-20T19:42:57;2.27;;;0.90;;
9280;SDS011;4679;47.966;7.958;2023-03-20T19:44:59;1.63;;;0.90;;
9280;SDS011;4679;47.966;7.958;2023-03-20T19:47:01;1.63;;;1.10;;
9280;SDS011;4679;47.966;7.958;2023-03-20T19:49:03;1.10;;;1.00;;
9280;SDS011;4679;47.966;7.958;2023-03-20T19:51:05;1.53;;;1.00;;
9280;SDS011;4679;47.966;7.958;2023-03-20T19:53:09;0.83;;;0.83;;
9280;SDS011;4679;47.966;7.958;2023-03-20T19:55:13;1.23;;;1.10;;
9280;SDS011;4679;47.966;7.958;2023-03-20T19:57:16;2.67;;;1.10;;
9280;SDS011;4679;47.966;7.958;2023-03-20T19:59:18;1.60;;;1.23;;